Back to Top

Language: 

My Weather Underground Personal Weather Station Historical Data with Graphs...

Delerius Weather Station Historical Data
Daily Summary for November 17, 2017 Units:  Metric    English   Both
« Previous Day
Next Day »
Daily Weekly Monthly Yearly Custom
  High: Low: Average:
Temperature: 8.2 °C 1.4 °C 5 °C
Dew Point: 5.2 °C 0.2 °C 2.8 °C
Humidity: 95 % 79 % 86 %
Wind Speed: 27.4 km/h 0 km/h 8 km/h
Wind Gust: 45.1 km/h - -
Wind:- - West
Pressure: 1028.7 hPa 1021.9 hPa -
Precipitation: 0 mm    
Historical Graphs
 
 
Tabular Data for November 17, 2017
Time Temperature Dew Point Pressure Wind Wind Speed Wind Gust Humidity Rainfall Rate (Hourly) solar Conditions
00:02 4.8 °C 3 °C 1028 hPa WNW 4.8 km/h 8 km/h 88 % 0 mm 0 W/m2
00:07 4.8 °C 3 °C 1028 hPa NNW 3.2 km/h 8 km/h 88 % 0 mm 0 W/m2
00:12 4.8 °C 3 °C 1028 hPa WNW 4.8 km/h 8 km/h 88 % 0 mm 0 W/m2
00:17 4.8 °C 3 °C 1028 hPa WNW 1.6 km/h 3.2 km/h 88 % 0 mm 0 W/m2
00:22 4.7 °C 2.9 °C 1028 hPa Calm   1.6 km/h 88 % 0 mm 0 W/m2
00:27 4.5 °C 2.5 °C 1028 hPa WNW 3.2 km/h 6.4 km/h 87 % 0 mm 0 W/m2
00:32 4.4 °C 2.6 °C 1028 hPa WNW 4.8 km/h 6.4 km/h 88 % 0 mm 0 W/m2
00:37 4.2 °C 2.4 °C 1028 hPa WNW 6.4 km/h 9.7 km/h 88 % 0 mm 0 W/m2
00:42 4.2 °C 2.4 °C 1028 hPa WNW 3.2 km/h 6.4 km/h 88 % 0 mm 0 W/m2
00:47 4.1 °C 2.3 °C 1028 hPa WNW 3.2 km/h 8 km/h 88 % 0 mm 0 W/m2
00:52 4 °C 2.3 °C 1028 hPa Calm   3.2 km/h 89 % 0 mm 0 W/m2
00:58 3.8 °C 2 °C 1028 hPa Calm   3.2 km/h 88 % 0 mm 0 W/m2
01:03 3.6 °C 1.8 °C 1028 hPa WNW 3.2 km/h 8 km/h 88 % 0 mm 0 W/m2
01:08 3.4 °C 1.6 °C 1028 hPa Calm   1.6 km/h 88 % 0 mm 0 W/m2
01:13 3.3 °C 1.7 °C 1028 hPa Calm     89 % 0 mm 0 W/m2
01:18 3.1 °C 1.3 °C 1028 hPa NW 3.2 km/h 4.8 km/h 88 % 0 mm 0 W/m2
01:23 2.9 °C 1.3 °C 1028 hPa NW 6.4 km/h 9.7 km/h 89 % 0 mm 0 W/m2
01:28 2.9 °C 1.4 °C 1028 hPa NW 4.8 km/h 9.7 km/h 90 % 0 mm 0 W/m2
01:33 2.9 °C 1.4 °C 1028 hPa Calm   3.2 km/h 90 % 0 mm 0 W/m2
01:38 2.8 °C 1.3 °C 1028 hPa NW 1.6 km/h 3.2 km/h 90 % 0 mm 0 W/m2
01:43 2.8 °C 1.3 °C 1028 hPa Calm   1.6 km/h 90 % 0 mm 0 W/m2
01:48 2.6 °C 1.1 °C 1028 hPa NW 1.6 km/h 8 km/h 90 % 0 mm 0 W/m2
01:53 2.6 °C 1.1 °C 1028 hPa NW 4.8 km/h 8 km/h 90 % 0 mm 0 W/m2
01:58 2.6 °C 1.3 °C 1028 hPa NW 3.2 km/h 6.4 km/h 91 % 0 mm 0 W/m2
02:03 2.5 °C 1.2 °C 1028 hPa NW 3.2 km/h 6.4 km/h 91 % 0 mm 0 W/m2
02:08 2.5 °C 1.2 °C 1028 hPa NW 4.8 km/h 8 km/h 91 % 0 mm 0 W/m2
02:13 2.6 °C 1.4 °C 1028 hPa NW 4.8 km/h 8 km/h 92 % 0 mm 0 W/m2
02:18 2.8 °C 1.6 °C 1028 hPa NW 6.4 km/h 11.3 km/h 92 % 0 mm 0 W/m2
02:23 3 °C 2 °C 1028 hPa NW 3.2 km/h 8 km/h 93 % 0 mm 0 W/m2
02:28 3.1 °C 1.9 °C 1028 hPa NW 1.6 km/h 8 km/h 92 % 0 mm 0 W/m2
02:33 3.1 °C 1.9 °C 1028 hPa NW 1.6 km/h 4.8 km/h 92 % 0 mm 0 W/m2
02:38 3.1 °C 1.9 °C 1028 hPa NW 1.6 km/h 3.2 km/h 92 % 0 mm 0 W/m2
02:43 3.1 °C 1.9 °C 1028 hPa NW 4.8 km/h 8 km/h 92 % 0 mm 0 W/m2
02:48 3.2 °C 2 °C 1028 hPa NW 4.8 km/h 9.7 km/h 92 % 0 mm 0 W/m2
02:49 3.2 °C 2 °C 1028 hPa NW 6.4 km/h 9.7 km/h 92 % 0 mm 0 W/m2
02:54 3.4 °C 2.4 °C 1028 hPa NW 1.6 km/h 6.4 km/h 93 % 0 mm 0 W/m2
02:59 3.5 °C 2.3 °C 1028 hPa Calm     92 % 0 mm 0 W/m2
03:09 3.4 °C 2.1 °C 1028 hPa Calm     91 % 0 mm 0 W/m2
03:14 3.4 °C 2.1 °C 1028 hPa Calm     91 % 0 mm 0 W/m2
03:20 3.3 °C 1.9 °C 1028 hPa Calm     91 % 0 mm 0 W/m2
03:22 3.3 °C 1.9 °C 1028 hPa Calm     91 % 0 mm 0 W/m2
03:23 3.3 °C 1.9 °C 1028 hPa Calm     91 % 0 mm 0 W/m2
03:25 3.2 °C 1.9 °C 1028 hPa Calm     91 % 0 mm 0 W/m2
03:26 3.2 °C 1.9 °C 1028 hPa Calm     91 % 0 mm 0 W/m2
03:30 3.1 °C 1.8 °C 1028 hPa Calm     91 % 0 mm 0 W/m2
03:32 3.1 °C 1.6 °C 1028 hPa Calm     90 % 0 mm 0 W/m2
03:42 2.9 °C 1.6 °C 1028 hPa Calm     91 % 0 mm 0 W/m2
03:52 2.6 °C 1.3 °C 1028 hPa Calm     91 % 0 mm 0 W/m2
03:57 2.5 °C 1.2 °C 1028 hPa Calm     91 % 0 mm 0 W/m2
04:02 2.4 °C 1.1 °C 1028 hPa Calm     91 % 0 mm 0 W/m2
04:07 2.3 °C 1 °C 1028 hPa Calm     91 % 0 mm 0 W/m2
04:12 2.2 °C 0.9 °C 1028 hPa Calm     91 % 0 mm 0 W/m2
04:17 2.2 °C 0.9 °C 1028 hPa Calm     91 % 0 mm 0 W/m2
04:22 2.1 °C 0.9 °C 1028 hPa Calm     92 % 0 mm 0 W/m2
04:27 2.1 °C 0.9 °C 1028 hPa Calm     92 % 0 mm 0 W/m2
04:33 2 °C 0.8 °C 1028 hPa Calm     92 % 0 mm 0 W/m2
04:38 1.9 °C 0.7 °C 1028 hPa Calm     92 % 0 mm 0 W/m2
04:43 1.9 °C 0.7 °C 1028 hPa Calm     92 % 0 mm 0 W/m2
04:48 1.9 °C 0.7 °C 1028 hPa Calm     92 % 0 mm 0 W/m2
04:53 1.8 °C 0.6 °C 1028 hPa Calm     92 % 0 mm 0 W/m2
04:58 1.8 °C 0.6 °C 1028 hPa NW 1.6 km/h 6.4 km/h 92 % 0 mm 0 W/m2
05:03 1.8 °C 0.8 °C 1028 hPa NW 3.2 km/h 6.4 km/h 93 % 0 mm 0 W/m2
05:08 1.8 °C 0.8 °C 1028 hPa Calm     93 % 0 mm 0 W/m2
05:18 1.7 °C 0.6 °C 1028 hPa Calm     92 % 0 mm 0 W/m2
05:23 1.6 °C 0.4 °C 1028 hPa Calm     92 % 0 mm 0 W/m2
05:28 1.4 °C 0.2 °C 1028 hPa Calm   1.6 km/h 92 % 0 mm 0 W/m2
05:33 1.4 °C 0.4 °C 1027.7 hPa NW 4.8 km/h 8 km/h 93 % 0 mm 0 W/m2
05:38 1.6 °C 0.7 °C 1028 hPa NW 1.6 km/h 6.4 km/h 94 % 0 mm 0 W/m2
05:43 1.6 °C 0.6 °C 1028 hPa Calm     93 % 0 mm 0 W/m2
05:48 1.6 °C 0.6 °C 1028 hPa Calm     93 % 0 mm 0 W/m2
05:53 1.5 °C 0.5 °C 1028 hPa NW 4.8 km/h 6.4 km/h 93 % 0 mm 0 W/m2
05:58 1.6 °C 0.6 °C 1028 hPa NW 6.4 km/h 8 km/h 93 % 0 mm 0 W/m2
06:03 1.7 °C 0.8 °C 1028 hPa NW 4.8 km/h 8 km/h 94 % 0 mm 0 W/m2
06:08 1.8 °C 0.9 °C 1028 hPa WNW 4.8 km/h 8 km/h 94 % 0 mm 0 W/m2
06:13 1.8 °C 0.9 °C 1028 hPa WNW 6.4 km/h 8 km/h 94 % 0 mm 0 W/m2
06:18 1.8 °C 0.9 °C 1028 hPa WNW 6.4 km/h 9.7 km/h 94 % 0 mm 0 W/m2
06:23 1.9 °C 1.1 °C 1028 hPa WNW 6.4 km/h 8 km/h 94 % 0 mm 0 W/m2
06:28 1.9 °C 1.1 °C 1028 hPa WNW 4.8 km/h 8 km/h 94 % 0 mm 0 W/m2
06:33 1.9 °C 1.1 °C 1027.7 hPa WNW 6.4 km/h 8 km/h 94 % 0 mm 0 W/m2
06:38 2.1 °C 1.2 °C 1028 hPa WNW 8 km/h 9.7 km/h 94 % 0 mm 0 W/m2
06:43 2.1 °C 1.2 °C 1028 hPa WNW 8 km/h 9.7 km/h 94 % 0 mm 0 W/m2
06:48 2.2 °C 1.3 °C 1028 hPa WNW 3.2 km/h 8 km/h 94 % 0 mm 0 W/m2
06:53 2.1 °C 1.1 °C 1028 hPa Calm     93 % 0 mm 0 W/m2
06:58 2.1 °C 1.1 °C 1028 hPa Calm     93 % 0 mm 0 W/m2
07:03 1.9 °C 0.9 °C 1028 hPa Calm     93 % 0 mm 0 W/m2
07:08 1.8 °C 0.6 °C 1028 hPa Calm     92 % 0 mm 0 W/m2
07:13 1.6 °C 0.6 °C 1028 hPa Calm     93 % 0 mm 0 W/m2
07:18 1.6 °C 0.6 °C 1028 hPa Calm     93 % 0 mm 0 W/m2
07:23 1.4 °C 0.4 °C 1028 hPa Calm     93 % 0 mm 0 W/m2
07:28 1.4 °C 0.4 °C 1028 hPa Calm   1.6 km/h 93 % 0 mm 0 W/m2
07:33 1.4 °C 0.4 °C 1028 hPa Calm     93 % 0 mm 5 W/m2
07:40 1.4 °C 0.4 °C 1028 hPa WNW 1.6 km/h 3.2 km/h 93 % 0 mm 9 W/m2
07:45 1.4 °C 0.6 °C 1028.3 hPa Calm   1.6 km/h 94 % 0 mm 11 W/m2
07:50 1.4 °C 0.6 °C 1028.3 hPa Calm     94 % 0 mm 14 W/m2
07:55 1.4 °C 0.6 °C 1028.3 hPa Calm     94 % 0 mm 16 W/m2
08:00 1.5 °C 0.7 °C 1028 hPa Calm     94 % 0 mm 18 W/m2
08:05 1.6 °C 0.7 °C 1028 hPa Calm   1.6 km/h 94 % 0 mm 21 W/m2
08:10 1.6 °C 0.7 °C 1028.3 hPa Calm   3.2 km/h 94 % 0 mm 23 W/m2
08:15 1.7 °C 0.8 °C 1028.3 hPa Calm     94 % 0 mm 25 W/m2
08:20 1.8 °C 0.9 °C 1028.3 hPa Calm     94 % 0 mm 25 W/m2
08:25 1.9 °C 1.2 °C 1028.3 hPa SW 1.6 km/h 6.4 km/h 95 % 0 mm 25 W/m2
08:30 2.1 °C 1.2 °C 1028.3 hPa Calm     94 % 0 mm 26 W/m2
08:35 2.1 °C 1.2 °C 1028.7 hPa Calm     94 % 0 mm 33 W/m2
08:40 2.1 °C 1.2 °C 1028.7 hPa Calm   3.2 km/h 94 % 0 mm 42 W/m2
08:42 2.1 °C 1.2 °C 1028.7 hPa Calm     94 % 0 mm 46 W/m2
08:47 2.2 °C 1.3 °C 1028.7 hPa Calm     94 % 0 mm 51 W/m2
08:52 2.3 °C 1.6 °C 1028.7 hPa Calm     95 % 0 mm 83 W/m2
08:57 2.4 °C 1.7 °C 1028.7 hPa Calm     95 % 0 mm 53 W/m2
09:02 2.6 °C 1.9 °C 1028.7 hPa Calm     95 % 0 mm 46 W/m2
09:07 2.8 °C 2.1 °C 1028.3 hPa Calm     95 % 0 mm 51 W/m2
09:12 3.1 °C 2.4 °C 1028.3 hPa Calm   3.2 km/h 95 % 0 mm 54 W/m2
09:17 3.3 °C 2.6 °C 1028 hPa Calm   3.2 km/h 95 % 0 mm 44 W/m2
09:22 3.4 °C 2.7 °C 1028.3 hPa Calm   3.2 km/h 95 % 0 mm 44 W/m2
09:27 3.6 °C 2.9 °C 1028 hPa SSE 1.6 km/h 6.4 km/h 95 % 0 mm 113 W/m2
09:32 3.9 °C 3.2 °C 1028 hPa Calm     95 % 0 mm 121 W/m2
09:37 4.2 °C 3.4 °C 1028 hPa Calm   3.2 km/h 95 % 0 mm 121 W/m2
09:42 4.4 °C 3.5 °C 1028 hPa Calm   1.6 km/h 94 % 0 mm 81 W/m2
09:47 4.7 °C 3.8 °C 1028 hPa Calm   1.6 km/h 94 % 0 mm 218 W/m2
09:52 5 °C 4.1 °C 1028 hPa Calm     94 % 0 mm 230 W/m2
09:57 5.4 °C 4.5 °C 1028 hPa Calm     94 % 0 mm 204 W/m2
10:02 5.7 °C 4.7 °C 1028 hPa NW 1.6 km/h 3.2 km/h 93 % 0 mm 251 W/m2
10:07 6.1 °C 4.9 °C 1028 hPa West 6.4 km/h 12.9 km/h 92 % 0 mm 258 W/m2
10:08 6.2 °C 5 °C 1028 hPa West 6.4 km/h 9.7 km/h 92 % 0 mm 267 W/m2
10:13 6.5 °C 5 °C 1028.3 hPa West 6.4 km/h 12.9 km/h 90 % 0 mm 348 W/m2
10:18 6.9 °C 5.2 °C 1028.3 hPa West 4.8 km/h 9.7 km/h 89 % 0 mm 116 W/m2
10:23 7.1 °C 5.1 °C 1028.3 hPa West 9.7 km/h 14.5 km/h 87 % 0 mm 135 W/m2
10:33 7.1 °C 4.7 °C 1028.3 hPa West 12.9 km/h 22.5 km/h 85 % 0 mm 308 W/m2
10:38 7.2 °C 4.8 °C 1028.3 hPa West 12.9 km/h 19.3 km/h 85 % 0 mm 116 W/m2
10:43 7.3 °C 4.8 °C 1028.3 hPa West 14.5 km/h 24.1 km/h 84 % 0 mm 292 W/m2
10:48 7.5 °C 4.9 °C 1028.3 hPa West 12.9 km/h 22.5 km/h 84 % 0 mm 318 W/m2
10:53 7.7 °C 5.2 °C 1028.3 hPa West 11.3 km/h 17.7 km/h 84 % 0 mm 360 W/m2
10:55 7.7 °C 5 °C 1028.3 hPa West 12.9 km/h 17.7 km/h 83 % 0 mm 371 W/m2
11:00 7.9 °C 5.2 °C 1028.3 hPa West 9.7 km/h 16.1 km/h 83 % 0 mm 378 W/m2
11:05 8.1 °C 5.1 °C 1028.3 hPa West 12.9 km/h 17.7 km/h 81 % 0 mm 183 W/m2
11:10 8.2 °C 5.1 °C 1028.3 hPa West 12.9 km/h 19.3 km/h 81 % 0 mm 278 W/m2
11:15 8.2 °C 4.9 °C 1028 hPa WSW 12.9 km/h 19.3 km/h 80 % 0 mm 148 W/m2
11:20 8.1 °C 4.8 °C 1028 hPa West 11.3 km/h 19.3 km/h 80 % 0 mm 153 W/m2
11:25 7.9 °C 4.7 °C 1028 hPa WSW 14.5 km/h 20.9 km/h 80 % 0 mm 148 W/m2
11:30 7.7 °C 4.4 °C 1028 hPa WSW 16.1 km/h 25.7 km/h 80 % 0 mm 174 W/m2
11:35 7.7 °C 4.4 °C 1028 hPa WSW 14.5 km/h 24.1 km/h 80 % 0 mm 218 W/m2
11:40 7.7 °C 4.7 °C 1027.7 hPa WSW 12.9 km/h 24.1 km/h 81 % 0 mm 243 W/m2
11:45 7.9 °C 4.7 °C 1028 hPa WSW 16.1 km/h 24.1 km/h 80 % 0 mm 234 W/m2
11:50 8 °C 4.8 °C 1027.7 hPa WSW 14.5 km/h 20.9 km/h 80 % 0 mm 274 W/m2
11:55 8.1 °C 4.8 °C 1027.7 hPa WSW 12.9 km/h 20.9 km/h 80 % 0 mm 221 W/m2
12:00 8.1 °C 4.7 °C 1027.7 hPa West 19.3 km/h 33.8 km/h 79 % 0 mm 237 W/m2
12:05 8.2 °C 4.8 °C 1027.7 hPa WSW 17.7 km/h 25.7 km/h 79 % 0 mm 299 W/m2
12:10 8.2 °C 4.9 °C 1027.7 hPa West 16.1 km/h 24.1 km/h 80 % 0 mm 190 W/m2
12:15 8.1 °C 4.8 °C 1027.7 hPa West 11.3 km/h 20.9 km/h 80 % 0 mm 76 W/m2
12:20 8.1 °C 4.8 °C 1027.7 hPa WSW 12.9 km/h 25.7 km/h 80 % 0 mm 79 W/m2
12:25 7.9 °C 4.8 °C 1027.3 hPa WSW 9.7 km/h 16.1 km/h 81 % 0 mm 141 W/m2
12:30 7.9 °C 4.8 °C 1027.3 hPa WSW 12.9 km/h 17.7 km/h 81 % 0 mm 163 W/m2
12:35 7.9 °C 5 °C 1027.3 hPa WSW 9.7 km/h 14.5 km/h 82 % 0 mm 176 W/m2
12:40 8 °C 4.9 °C 1027.3 hPa WSW 11.3 km/h 16.1 km/h 81 % 0 mm 141 W/m2
12:45 8.1 °C 5.1 °C 1027.3 hPa WSW 9.7 km/h 14.5 km/h 81 % 0 mm 125 W/m2
12:50 8.1 °C 4.8 °C 1027.3 hPa West 14.5 km/h 20.9 km/h 80 % 0 mm 114 W/m2
12:55 8.1 °C 4.7 °C 1027.3 hPa West 17.7 km/h 29 km/h 79 % 0 mm 127 W/m2
13:00 8.2 °C 4.9 °C 1027 hPa West 11.3 km/h 19.3 km/h 80 % 0 mm 127 W/m2
13:05 8.2 °C 4.8 °C 1027 hPa West 12.9 km/h 22.5 km/h 79 % 0 mm 114 W/m2
13:10 8.2 °C 4.9 °C 1027 hPa West 9.7 km/h 17.7 km/h 80 % 0 mm 102 W/m2
13:11 8.2 °C 4.9 °C 1027 hPa West 11.3 km/h 17.7 km/h 80 % 0 mm 100 W/m2
13:16 8.1 °C 4.8 °C 1026.6 hPa West 14.5 km/h 25.7 km/h 80 % 0 mm 83 W/m2
13:21 8 °C 4.8 °C 1026.6 hPa West 17.7 km/h 30.6 km/h 80 % 0 mm 72 W/m2
13:26 8 °C 4.8 °C 1026.6 hPa West 16.1 km/h 33.8 km/h 80 % 0 mm 76 W/m2
13:31 7.9 °C 4.7 °C 1026.3 hPa West 19.3 km/h 25.7 km/h 80 % 0 mm 84 W/m2
13:36 7.9 °C 4.7 °C 1026.3 hPa West 17.7 km/h 29 km/h 80 % 0 mm 62 W/m2
13:41 7.9 °C 4.7 °C 1026.3 hPa WSW 19.3 km/h 29 km/h 80 % 0 mm 46 W/m2
13:46 7.9 °C 4.7 °C 1026.3 hPa West 8 km/h 14.5 km/h 80 % 0 mm 39 W/m2
13:51 7.9 °C 4.5 °C 1026.3 hPa West 12.9 km/h 20.9 km/h 79 % 0 mm 35 W/m2
13:56 7.8 °C 4.4 °C 1026.3 hPa West 22.5 km/h 33.8 km/h 79 % 0 mm 39 W/m2
14:01 7.8 °C 4.4 °C 1026 hPa West 22.5 km/h 33.8 km/h 79 % 0 mm 37 W/m2
14:06 7.8 °C 4.4 °C 1026 hPa West 20.9 km/h 30.6 km/h 79 % 0 mm 35 W/m2
14:11 7.7 °C 4.4 °C 1026 hPa West 17.7 km/h 29 km/h 80 % 0 mm 35 W/m2
14:16 7.6 °C 4.4 °C 1026 hPa West 19.3 km/h 35.4 km/h 80 % 0 mm 35 W/m2
14:17 7.6 °C 4.4 °C 1026 hPa West 22.5 km/h 35.4 km/h 80 % 0 mm 35 W/m2
14:22 7.6 °C 4.6 °C 1025.6 hPa West 19.3 km/h 29 km/h 81 % 0 mm 32 W/m2
14:27 7.5 °C 4.6 °C 1025.6 hPa West 19.3 km/h 33.8 km/h 82 % 0 mm 30 W/m2
14:32 7.4 °C 4.5 °C 1025.6 hPa West 22.5 km/h 32.2 km/h 82 % 0 mm 28 W/m2
14:37 7.4 °C 4.5 °C 1026 hPa West 17.7 km/h 30.6 km/h 82 % 0 mm 30 W/m2
14:42 7.4 °C 4.5 °C 1026 hPa West 20.9 km/h 33.8 km/h 82 % 0 mm 26 W/m2
14:47 7.4 °C 4.3 °C 1026 hPa West 20.9 km/h 30.6 km/h 81 % 0 mm 23 W/m2
14:52 7.4 °C 4.3 °C 1026 hPa West 17.7 km/h 32.2 km/h 81 % 0 mm 21 W/m2
14:57 7.4 °C 4.2 °C 1026 hPa West 16.1 km/h 22.5 km/h 80 % 0 mm 21 W/m2
15:02 7.4 °C 4.2 °C 1026 hPa West 20.9 km/h 29 km/h 80 % 0 mm 23 W/m2
15:07 7.4 °C 4.2 °C 1026 hPa West 14.5 km/h 22.5 km/h 80 % 0 mm 23 W/m2
15:12 7.4 °C 4.2 °C 1026.3 hPa WSW 16.1 km/h 24.1 km/h 80 % 0 mm 23 W/m2
15:17 7.3 °C 4.1 °C 1026.3 hPa West 12.9 km/h 20.9 km/h 80 % 0 mm 23 W/m2
15:22 7.3 °C 4.1 °C 1026.3 hPa WSW 12.9 km/h 19.3 km/h 80 % 0 mm 25 W/m2
15:27 7.3 °C 4.1 °C 1026.3 hPa West 12.9 km/h 19.3 km/h 80 % 0 mm 25 W/m2
15:32 7.3 °C 4.1 °C 1026 hPa WSW 12.9 km/h 17.7 km/h 80 % 0 mm 23 W/m2
15:37 7.3 °C 4.1 °C 1026 hPa WSW 11.3 km/h 17.7 km/h 80 % 0 mm 19 W/m2
15:42 7.3 °C 4.1 °C 1026 hPa WSW 12.9 km/h 17.7 km/h 80 % 0 mm 14 W/m2
15:47 7.3 °C 4.1 °C 1026 hPa WSW 6.4 km/h 12.9 km/h 80 % 0 mm 11 W/m2
15:52 7.2 °C 4 °C 1026 hPa SW 11.3 km/h 16.1 km/h 80 % 0 mm 9 W/m2
15:57 7.2 °C 3.8 °C 1026 hPa SW 11.3 km/h 17.7 km/h 79 % 0 mm 7 W/m2
16:02 7.2 °C 4 °C 1026 hPa WSW 9.7 km/h 17.7 km/h 80 % 0 mm 5 W/m2
16:07 7.1 °C 3.9 °C 1025.6 hPa WSW 9.7 km/h 16.1 km/h 80 % 0 mm 5 W/m2
16:12 6.9 °C 3.7 °C 1026 hPa West 11.3 km/h 20.9 km/h 80 % 0 mm 0 W/m2
16:17 6.9 °C 3.9 °C 1025.6 hPa WSW 8 km/h 16.1 km/h 81 % 0 mm 0 W/m2
16:22 6.8 °C 3.8 °C 1025.6 hPa WSW 8 km/h 16.1 km/h 81 % 0 mm 0 W/m2
16:27 6.7 °C 3.7 °C 1025.6 hPa West 4.8 km/h 12.9 km/h 81 % 0 mm 0 W/m2
16:32 6.6 °C 3.6 °C 1025.6 hPa WSW 9.7 km/h 16.1 km/h 81 % 0 mm 0 W/m2
16:37 6.5 °C 3.5 °C 1025.3 hPa WSW 8 km/h 19.3 km/h 81 % 0 mm 0 W/m2
16:42 6.4 °C 3.4 °C 1025.6 hPa West 3.2 km/h 14.5 km/h 81 % 0 mm 0 W/m2
16:47 6.3 °C 3.1 °C 1025.6 hPa WNW 1.6 km/h 9.7 km/h 80 % 0 mm 0 W/m2
16:52 6.3 °C 3.1 °C 1025.6 hPa WNW 6.4 km/h 14.5 km/h 80 % 0 mm 0 W/m2
16:57 6.3 °C 3.1 °C 1025.6 hPa Calm   3.2 km/h 80 % 0 mm 0 W/m2
17:03 6.2 °C 3 °C 1025.6 hPa South 4.8 km/h 11.3 km/h 80 % 0 mm 0 W/m2
17:08 6.2 °C 3 °C 1025.3 hPa Calm   3.2 km/h 80 % 0 mm 0 W/m2
17:13 6.1 °C 2.9 °C 1025.3 hPa West 4.8 km/h 14.5 km/h 80 % 0 mm 0 W/m2
17:18 6.1 °C 2.9 °C 1025.3 hPa WSW 4.8 km/h 12.9 km/h 80 % 0 mm 0 W/m2
17:28 6.1 °C 3.1 °C 1025.3 hPa WSW 8 km/h 12.9 km/h 81 % 0 mm 0 W/m2
17:33 6 °C 3 °C 1025.3 hPa West 11.3 km/h 19.3 km/h 81 % 0 mm 0 W/m2
17:43 6 °C 3.2 °C 1024.9 hPa West 11.3 km/h 19.3 km/h 82 % 0 mm 0 W/m2
17:48 6 °C 3.2 °C 1024.9 hPa WSW 14.5 km/h 19.3 km/h 82 % 0 mm 0 W/m2
17:53 6.1 °C 3.1 °C 1024.9 hPa West 16.1 km/h 24.1 km/h 81 % 0 mm 0 W/m2
17:58 6.1 °C 3.1 °C 1024.9 hPa West 12.9 km/h 20.9 km/h 81 % 0 mm 0 W/m2
18:03 6.2 °C 3.2 °C 1024.9 hPa West 17.7 km/h 25.7 km/h 81 % 0 mm 0 W/m2
18:08 6.2 °C 3.2 °C 1024.6 hPa West 17.7 km/h 29 km/h 81 % 0 mm 0 W/m2
18:09 6.2 °C 3.2 °C 1024.6 hPa West 16.1 km/h 29 km/h 81 % 0 mm 0 W/m2
18:14 6.2 °C 3.2 °C 1024.6 hPa West 19.3 km/h 33.8 km/h 81 % 0 mm 0 W/m2
18:19 6.2 °C 3.2 °C 1024.6 hPa West 19.3 km/h 30.6 km/h 81 % 0 mm 0 W/m2
18:23 6.1 °C 3.1 °C 1024.6 hPa West 16.1 km/h 25.7 km/h 81 % 0 mm 0 W/m2
18:28 6.2 °C 3.2 °C 1024.6 hPa West 17.7 km/h 32.2 km/h 81 % 0 mm 0 W/m2
18:33 6.2 °C 3.2 °C 1024.6 hPa West 12.9 km/h 22.5 km/h 81 % 0 mm 0 W/m2
18:38 6.1 °C 3.1 °C 1024.6 hPa West 17.7 km/h 25.7 km/h 81 % 0 mm 0 W/m2
18:43 6.2 °C 3 °C 1024.6 hPa West 9.7 km/h 19.3 km/h 80 % 0 mm 0 W/m2
18:48 6.1 °C 3.1 °C 1024.6 hPa West 8 km/h 12.9 km/h 81 % 0 mm 0 W/m2
18:53 6.1 °C 3.1 °C 1024.6 hPa West 12.9 km/h 19.3 km/h 81 % 0 mm 0 W/m2
18:58 6.1 °C 3.1 °C 1024.6 hPa West 9.7 km/h 16.1 km/h 81 % 0 mm 0 W/m2
19:03 6 °C 3 °C 1024.3 hPa WSW 9.7 km/h 20.9 km/h 81 % 0 mm 0 W/m2
19:08 6 °C 3 °C 1024.3 hPa WSW 11.3 km/h 22.5 km/h 81 % 0 mm 0 W/m2
19:13 5.9 °C 2.9 °C 1024.3 hPa West 12.9 km/h 22.5 km/h 81 % 0 mm 0 W/m2
19:18 5.9 °C 3.1 °C 1024.6 hPa West 11.3 km/h 20.9 km/h 82 % 0 mm 0 W/m2
19:23 5.9 °C 3.1 °C 1024.6 hPa West 9.7 km/h 19.3 km/h 82 % 0 mm 0 W/m2
19:28 5.9 °C 3.1 °C 1024.6 hPa West 11.3 km/h 19.3 km/h 82 % 0 mm 0 W/m2
19:33 5.9 °C 2.9 °C 1024.3 hPa West 9.7 km/h 14.5 km/h 81 % 0 mm 0 W/m2
19:38 5.8 °C 2.9 °C 1024.3 hPa West 11.3 km/h 17.7 km/h 82 % 0 mm 0 W/m2
19:43 5.9 °C 3.1 °C 1024.3 hPa West 12.9 km/h 19.3 km/h 82 % 0 mm 0 W/m2
19:48 5.9 °C 3.1 °C 1024.3 hPa West 9.7 km/h 20.9 km/h 82 % 0 mm 0 W/m2
19:53 5.9 °C 3.1 °C 1024.3 hPa West 11.3 km/h 17.7 km/h 82 % 0 mm 0 W/m2
19:58 5.9 °C 3.1 °C 1024.3 hPa West 9.7 km/h 16.1 km/h 82 % 0 mm 0 W/m2
20:03 5.9 °C 3.1 °C 1024.3 hPa West 14.5 km/h 22.5 km/h 82 % 0 mm 0 W/m2
20:08 6 °C 3.2 °C 1024.3 hPa West 12.9 km/h 17.7 km/h 82 % 0 mm 0 W/m2
20:13 6 °C 3.2 °C 1024.3 hPa WSW 12.9 km/h 19.3 km/h 82 % 0 mm 0 W/m2
20:18 6 °C 3.2 °C 1023.9 hPa West 12.9 km/h 19.3 km/h 82 % 0 mm 0 W/m2
20:23 5.9 °C 3.1 °C 1023.9 hPa WSW 14.5 km/h 25.7 km/h 82 % 0 mm 0 W/m2
20:28 5.9 °C 3.1 °C 1023.9 hPa West 14.5 km/h 29 km/h 82 % 0 mm 0 W/m2
20:33 5.9 °C 3.2 °C 1023.6 hPa WSW 12.9 km/h 20.9 km/h 83 % 0 mm 0 W/m2
20:38 5.9 °C 3.2 °C 1023.9 hPa WSW 16.1 km/h 25.7 km/h 83 % 0 mm 0 W/m2
20:43 5.9 °C 3.2 °C 1023.9 hPa WSW 16.1 km/h 24.1 km/h 83 % 0 mm 0 W/m2
20:48 5.9 °C 3.2 °C 1023.9 hPa WSW 12.9 km/h 20.9 km/h 83 % 0 mm 0 W/m2
20:53 5.8 °C 3.1 °C 1023.9 hPa WSW 11.3 km/h 19.3 km/h 83 % 0 mm 0 W/m2
20:58 5.8 °C 3.1 °C 1023.9 hPa WSW 14.5 km/h 20.9 km/h 83 % 0 mm 0 W/m2
21:03 5.8 °C 3.3 °C 1023.9 hPa SW 11.3 km/h 14.5 km/h 84 % 0 mm 0 W/m2
21:08 5.7 °C 3.2 °C 1023.9 hPa SW 11.3 km/h 20.9 km/h 84 % 0 mm 0 W/m2
21:13 5.7 °C 3.2 °C 1023.9 hPa SW 8 km/h 14.5 km/h 84 % 0 mm 0 W/m2
21:16 5.7 °C 3.2 °C 1023.6 hPa SW 9.7 km/h 16.1 km/h 84 % 0 mm 0 W/m2
21:21 5.6 °C 3.1 °C 1023.9 hPa SSW 8 km/h 11.3 km/h 84 % 0 mm 0 W/m2
21:26 5.5 °C 3 °C 1023.6 hPa SW 6.4 km/h 11.3 km/h 84 % 0 mm 0 W/m2
21:31 5.5 °C 3 °C 1023.6 hPa SW 4.8 km/h 11.3 km/h 84 % 0 mm 0 W/m2
21:36 5.4 °C 2.9 °C 1023.6 hPa SW 1.6 km/h 6.4 km/h 84 % 0 mm 0 W/m2
21:41 5.3 °C 2.8 °C 1023.6 hPa SSW 1.6 km/h 6.4 km/h 84 % 0 mm 0 W/m2
21:46 5.2 °C 2.7 °C 1023.6 hPa Calm   3.2 km/h 84 % 0 mm 0 W/m2
21:51 5.1 °C 2.8 °C 1023.2 hPa South 4.8 km/h 9.7 km/h 85 % 0 mm 0 W/m2
21:56 5.1 °C 2.9 °C 1023.2 hPa SSW 8 km/h 12.9 km/h 86 % 0 mm 0 W/m2
22:01 5.2 °C 3.1 °C 1023.2 hPa SSW 3.2 km/h 9.7 km/h 86 % 0 mm 0 W/m2
22:06 5.2 °C 3.1 °C 1023.2 hPa South 6.4 km/h 12.9 km/h 86 % 0 mm 0 W/m2
22:11 5.2 °C 3.1 °C 1023.2 hPa SW 1.6 km/h 6.4 km/h 86 % 0 mm 0 W/m2
22:16 5.1 °C 2.9 °C 1023.2 hPa SSW 1.6 km/h 8 km/h 86 % 0 mm 0 W/m2
22:21 5.1 °C 2.8 °C 1022.9 hPa SSW 1.6 km/h 8 km/h 85 % 0 mm 0 W/m2
22:26 4.9 °C 2.8 °C 1022.9 hPa WSW 8 km/h 12.9 km/h 86 % 0 mm 0 W/m2
22:31 5.1 °C 3.1 °C 1022.9 hPa South 3.2 km/h 9.7 km/h 87 % 0 mm 0 W/m2
22:36 5.1 °C 2.9 °C 1022.9 hPa Calm   3.2 km/h 86 % 0 mm 0 W/m2
22:41 5.1 °C 3.1 °C 1022.9 hPa SW 4.8 km/h 9.7 km/h 87 % 0 mm 0 W/m2
22:46 5.2 °C 3.1 °C 1022.6 hPa West 11.3 km/h 24.1 km/h 86 % 0 mm 0 W/m2
22:51 5.3 °C 3.3 °C 1022.6 hPa West 12.9 km/h 25.7 km/h 87 % 0 mm 0 W/m2
22:56 5.5 °C 3.3 °C 1022.6 hPa West 17.7 km/h 30.6 km/h 86 % 0 mm 0 W/m2
23:01 5.6 °C 3.4 °C 1022.2 hPa West 19.3 km/h 32.2 km/h 86 % 0 mm 0 W/m2
23:06 5.7 °C 3.6 °C 1022.2 hPa West 14.5 km/h 24.1 km/h 86 % 0 mm 0 W/m2
23:11 5.7 °C 3.4 °C 1022.2 hPa West 20.9 km/h 33.8 km/h 85 % 0 mm 0 W/m2
23:16 5.8 °C 3.4 °C 1021.9 hPa West 24.1 km/h 41.8 km/h 85 % 0 mm 0 W/m2
23:21 5.8 °C 3.4 °C 1021.9 hPa West 24.1 km/h 38.6 km/h 85 % 0 mm 0 W/m2
23:26 5.9 °C 3.6 °C 1022.2 hPa West 27.4 km/h 45.1 km/h 85 % 0 mm 0 W/m2
23:31 5.9 °C 3.6 °C 1021.9 hPa West 20.9 km/h 33.8 km/h 85 % 0 mm 0 W/m2
23:37 5.9 °C 3.6 °C 1021.9 hPa West 24.1 km/h 38.6 km/h 85 % 0 mm 0 W/m2
23:42 5.9 °C 3.6 °C 1022.2 hPa West 20.9 km/h 32.2 km/h 85 % 0 mm 0 W/m2
23:47 5.9 °C 3.6 °C 1022.2 hPa WNW 24.1 km/h 37 km/h 85 % 0 mm 0 W/m2
23:52 5.9 °C 3.6 °C 1021.9 hPa WNW 24.1 km/h 38.6 km/h 85 % 0 mm 0 W/m2
23:57 5.9 °C 3.6 °C 1021.9 hPa WNW 25.7 km/h 40.2 km/h 85 % 0 mm 0 W/m2
Delerius-Weather
Compliments of Weather Underground - 2.25 mb

Data updates at regular intervals.